sensor_id;sensor_type;location;lat;lon;timestamp;P1;durP1;ratioP1;P2;durP2;ratioP2
13672;SDS011;6909;52.202;9.876;2023-01-01T00:01:12;1.97;;;1.20;;
13672;SDS011;6909;52.202;9.876;2023-01-01T00:03:41;7.43;;;1.20;;
13672;SDS011;6909;52.202;9.876;2023-01-01T00:06:10;3.20;;;0.93;;
13672;SDS011;6909;52.202;9.876;2023-01-01T00:08:38;1.70;;;0.77;;
13672;SDS011;6909;52.202;9.876;2023-01-01T00:11:06;2.03;;;0.70;;
13672;SDS011;6909;52.202;9.876;2023-01-01T00:13:34;3.80;;;1.07;;
13672;SDS011;6909;52.202;9.876;2023-01-01T00:16:03;3.40;;;1.20;;
13672;SDS011;6909;52.202;9.876;2023-01-01T00:18:30;2.60;;;1.47;;
13672;SDS011;6909;52.202;9.876;2023-01-01T00:21:00;2.30;;;1.17;;
13672;SDS011;6909;52.202;9.876;2023-01-01T00:23:29;1.20;;;0.90;;
13672;SDS011;6909;52.202;9.876;2023-01-01T00:25:56;3.53;;;1.17;;
13672;SDS011;6909;52.202;9.876;2023-01-01T00:28:23;5.10;;;1.07;;
13672;SDS011;6909;52.202;9.876;2023-01-01T00:30:50;2.97;;;1.37;;
13672;SDS011;6909;52.202;9.876;2023-01-01T00:33:16;2.53;;;1.20;;
13672;SDS011;6909;52.202;9.876;2023-01-01T00:35:43;1.23;;;0.80;;
13672;SDS011;6909;52.202;9.876;2023-01-01T00:38:10;4.90;;;0.70;;
13672;SDS011;6909;52.202;9.876;2023-01-01T00:40:38;1.63;;;0.90;;
13672;SDS011;6909;52.202;9.876;2023-01-01T00:43:04;1.30;;;0.70;;
13672;SDS011;6909;52.202;9.876;2023-01-01T00:45:31;2.60;;;1.10;;
13672;SDS011;6909;52.202;9.876;2023-01-01T00:47:57;2.83;;;1.13;;
13672;SDS011;6909;52.202;9.876;2023-01-01T00:50:24;2.30;;;0.97;;
13672;SDS011;6909;52.202;9.876;2023-01-01T00:52:50;2.40;;;0.90;;
13672;SDS011;6909;52.202;9.876;2023-01-01T00:55:17;3.17;;;1.17;;
13672;SDS011;6909;52.202;9.876;2023-01-01T00:57:45;4.10;;;1.27;;
13672;SDS011;6909;52.202;9.876;2023-01-01T01:00:12;1.10;;;0.73;;
13672;SDS011;6909;52.202;9.876;2023-01-01T01:02:40;1.50;;;0.67;;
13672;SDS011;6909;52.202;9.876;2023-01-01T01:05:06;2.47;;;0.83;;
13672;SDS011;6909;52.202;9.876;2023-01-01T01:07:34;4.10;;;1.00;;
13672;SDS011;6909;52.202;9.876;2023-01-01T01:10:01;2.60;;;0.73;;
13672;SDS011;6909;52.202;9.876;2023-01-01T01:12:28;1.47;;;1.03;;
13672;SDS011;6909;52.202;9.876;2023-01-01T01:14:56;4.10;;;0.80;;
13672;SDS011;6909;52.202;9.876;2023-01-01T01:17:22;1.80;;;1.00;;
13672;SDS011;6909;52.202;9.876;2023-01-01T01:19:49;2.43;;;1.10;;
13672;SDS011;6909;52.202;9.876;2023-01-01T01:22:15;4.50;;;1.10;;
13672;SDS011;6909;52.202;9.876;2023-01-01T01:24:42;5.90;;;1.30;;
13672;SDS011;6909;52.202;9.876;2023-01-01T01:27:09;3.40;;;0.80;;
13672;SDS011;6909;52.202;9.876;2023-01-01T01:29:35;3.07;;;0.70;;
13672;SDS011;6909;52.202;9.876;2023-01-01T01:32:03;3.60;;;1.23;;
13672;SDS011;6909;52.202;9.876;2023-01-01T01:34:30;2.17;;;0.80;;
13672;SDS011;6909;52.202;9.876;2023-01-01T01:36:57;1.73;;;1.00;;
13672;SDS011;6909;52.202;9.876;2023-01-01T01:39:23;1.63;;;0.67;;
13672;SDS011;6909;52.202;9.876;2023-01-01T01:41:50;2.97;;;0.80;;
13672;SDS011;6909;52.202;9.876;2023-01-01T01:47:15;1.37;;;0.80;;
13672;SDS011;6909;52.202;9.876;2023-01-01T01:49:45;1.27;;;0.70;;
13672;SDS011;6909;52.202;9.876;2023-01-01T01:52:12;1.23;;;0.70;;
13672;SDS011;6909;52.202;9.876;2023-01-01T01:54:39;3.60;;;1.50;;
13672;SDS011;6909;52.202;9.876;2023-01-01T01:57:07;2.00;;;1.13;;
13672;SDS011;6909;52.202;9.876;2023-01-01T01:59:37;3.87;;;1.20;;
13672;SDS011;6909;52.202;9.876;2023-01-01T02:02:09;2.10;;;1.20;;
13672;SDS011;6909;52.202;9.876;2023-01-01T02:04:42;1.60;;;0.83;;
13672;SDS011;6909;52.202;9.876;2023-01-01T02:07:10;2.50;;;1.07;;
13672;SDS011;6909;52.202;9.876;2023-01-01T02:09:37;2.87;;;1.00;;
13672;SDS011;6909;52.202;9.876;2023-01-01T02:12:04;2.83;;;0.87;;
13672;SDS011;6909;52.202;9.876;2023-01-01T02:14:31;2.83;;;1.37;;
13672;SDS011;6909;52.202;9.876;2023-01-01T02:16:59;2.07;;;1.27;;
13672;SDS011;6909;52.202;9.876;2023-01-01T02:19:35;2.10;;;0.80;;
13672;SDS011;6909;52.202;9.876;2023-01-01T02:22:12;1.20;;;0.80;;
13672;SDS011;6909;52.202;9.876;2023-01-01T02:24:50;1.70;;;1.23;;
13672;SDS011;6909;52.202;9.876;2023-01-01T02:27:26;1.20;;;1.10;;
13672;SDS011;6909;52.202;9.876;2023-01-01T02:30:03;0.97;;;0.67;;
13672;SDS011;6909;52.202;9.876;2023-01-01T02:32:33;5.87;;;1.50;;
13672;SDS011;6909;52.202;9.876;2023-01-01T02:35:04;4.20;;;1.10;;
13672;SDS011;6909;52.202;9.876;2023-01-01T02:37:49;3.03;;;1.53;;
13672;SDS011;6909;52.202;9.876;2023-01-01T02:40:18;1.63;;;1.00;;
13672;SDS011;6909;52.202;9.876;2023-01-01T02:42:48;2.03;;;1.30;;
13672;SDS011;6909;52.202;9.876;2023-01-01T02:45:18;1.93;;;1.20;;
13672;SDS011;6909;52.202;9.876;2023-01-01T02:47:45;4.70;;;1.10;;
13672;SDS011;6909;52.202;9.876;2023-01-01T02:50:12;5.87;;;1.17;;
13672;SDS011;6909;52.202;9.876;2023-01-01T02:52:45;2.20;;;1.03;;
13672;SDS011;6909;52.202;9.876;2023-01-01T02:55:24;1.43;;;1.10;;
13672;SDS011;6909;52.202;9.876;2023-01-01T02:57:58;5.47;;;0.90;;
13672;SDS011;6909;52.202;9.876;2023-01-01T03:00:50;2.27;;;1.10;;
13672;SDS011;6909;52.202;9.876;2023-01-01T03:03:24;3.67;;;1.10;;
13672;SDS011;6909;52.202;9.876;2023-01-01T03:05:55;1.23;;;1.00;;
13672;SDS011;6909;52.202;9.876;2023-01-01T03:08:45;2.50;;;1.20;;
13672;SDS011;6909;52.202;9.876;2023-01-01T03:11:16;1.50;;;1.27;;
13672;SDS011;6909;52.202;9.876;2023-01-01T03:13:47;2.00;;;1.03;;
13672;SDS011;6909;52.202;9.876;2023-01-01T03:16:20;2.67;;;1.17;;
13672;SDS011;6909;52.202;9.876;2023-01-01T03:18:51;2.03;;;1.33;;
13672;SDS011;6909;52.202;9.876;2023-01-01T03:21:36;1.80;;;1.10;;
13672;SDS011;6909;52.202;9.876;2023-01-01T03:24:06;2.63;;;1.20;;
13672;SDS011;6909;52.202;9.876;2023-01-01T03:26:37;2.57;;;0.90;;
13672;SDS011;6909;52.202;9.876;2023-01-01T03:29:05;2.80;;;0.90;;
13672;SDS011;6909;52.202;9.876;2023-01-01T03:31:37;3.23;;;1.10;;
13672;SDS011;6909;52.202;9.876;2023-01-01T03:34:08;5.37;;;1.10;;
13672;SDS011;6909;52.202;9.876;2023-01-01T03:36:39;1.53;;;0.87;;
13672;SDS011;6909;52.202;9.876;2023-01-01T03:39:10;1.77;;;0.90;;
13672;SDS011;6909;52.202;9.876;2023-01-01T03:41:39;2.07;;;1.03;;
13672;SDS011;6909;52.202;9.876;2023-01-01T03:44:10;1.83;;;0.90;;
13672;SDS011;6909;52.202;9.876;2023-01-01T03:46:44;3.90;;;0.90;;
13672;SDS011;6909;52.202;9.876;2023-01-01T03:49:11;2.13;;;1.20;;
13672;SDS011;6909;52.202;9.876;2023-01-01T03:51:43;3.33;;;1.20;;
13672;SDS011;6909;52.202;9.876;2023-01-01T03:54:27;1.53;;;1.00;;
13672;SDS011;6909;52.202;9.876;2023-01-01T03:57:04;2.03;;;1.33;;
13672;SDS011;6909;52.202;9.876;2023-01-01T03:59:37;3.87;;;0.97;;
13672;SDS011;6909;52.202;9.876;2023-01-01T04:02:09;1.00;;;0.73;;
13672;SDS011;6909;52.202;9.876;2023-01-01T04:04:38;2.13;;;0.80;;
13672;SDS011;6909;52.202;9.876;2023-01-01T04:07:05;1.80;;;1.10;;
13672;SDS011;6909;52.202;9.876;2023-01-01T04:09:32;1.97;;;1.00;;
13672;SDS011;6909;52.202;9.876;2023-01-01T04:12:01;1.37;;;0.83;;
13672;SDS011;6909;52.202;9.876;2023-01-01T04:14:29;2.33;;;1.07;;
13672;SDS011;6909;52.202;9.876;2023-01-01T04:16:58;2.27;;;1.20;;
13672;SDS011;6909;52.202;9.876;2023-01-01T04:19:26;1.57;;;0.83;;
13672;SDS011;6909;52.202;9.876;2023-01-01T04:21:53;5.13;;;1.17;;
13672;SDS011;6909;52.202;9.876;2023-01-01T04:24:20;2.63;;;1.00;;
13672;SDS011;6909;52.202;9.876;2023-01-01T04:26:47;1.87;;;0.73;;
13672;SDS011;6909;52.202;9.876;2023-01-01T04:29:14;1.60;;;1.10;;
13672;SDS011;6909;52.202;9.876;2023-01-01T04:31:41;4.37;;;1.27;;
13672;SDS011;6909;52.202;9.876;2023-01-01T04:34:07;1.17;;;0.80;;
13672;SDS011;6909;52.202;9.876;2023-01-01T04:36:36;3.60;;;0.90;;
13672;SDS011;6909;52.202;9.876;2023-01-01T04:39:03;0.63;;;0.60;;
13672;SDS011;6909;52.202;9.876;2023-01-01T04:41:32;1.40;;;0.90;;
13672;SDS011;6909;52.202;9.876;2023-01-01T04:44:00;1.80;;;0.77;;
13672;SDS011;6909;52.202;9.876;2023-01-01T04:46:27;0.87;;;0.60;;
13672;SDS011;6909;52.202;9.876;2023-01-01T04:48:54;1.17;;;0.93;;
13672;SDS011;6909;52.202;9.876;2023-01-01T04:51:20;1.57;;;0.70;;
13672;SDS011;6909;52.202;9.876;2023-01-01T04:53:49;1.33;;;0.50;;
13672;SDS011;6909;52.202;9.876;2023-01-01T04:56:16;5.77;;;0.70;;
13672;SDS011;6909;52.202;9.876;2023-01-01T04:58:43;1.20;;;0.90;;
13672;SDS011;6909;52.202;9.876;2023-01-01T05:01:14;1.17;;;0.90;;
13672;SDS011;6909;52.202;9.876;2023-01-01T05:03:43;1.33;;;0.77;;
13672;SDS011;6909;52.202;9.876;2023-01-01T05:06:10;2.07;;;0.80;;
13672;SDS011;6909;52.202;9.876;2023-01-01T05:08:38;1.20;;;0.80;;
13672;SDS011;6909;52.202;9.876;2023-01-01T05:11:08;1.30;;;0.83;;
13672;SDS011;6909;52.202;9.876;2023-01-01T05:13:37;0.70;;;0.60;;
13672;SDS011;6909;52.202;9.876;2023-01-01T05:16:06;3.13;;;0.70;;
13672;SDS011;6909;52.202;9.876;2023-01-01T05:18:34;3.00;;;0.60;;
13672;SDS011;6909;52.202;9.876;2023-01-01T05:21:02;1.10;;;0.87;;
13672;SDS011;6909;52.202;9.876;2023-01-01T05:23:30;5.27;;;0.80;;
13672;SDS011;6909;52.202;9.876;2023-01-01T05:25:56;3.37;;;1.00;;
13672;SDS011;6909;52.202;9.876;2023-01-01T05:28:25;1.17;;;0.67;;
13672;SDS011;6909;52.202;9.876;2023-01-01T05:30:52;1.17;;;0.80;;
13672;SDS011;6909;52.202;9.876;2023-01-01T05:33:19;1.67;;;0.40;;
13672;SDS011;6909;52.202;9.876;2023-01-01T05:35:45;1.10;;;0.70;;
13672;SDS011;6909;52.202;9.876;2023-01-01T05:38:18;1.00;;;0.60;;
13672;SDS011;6909;52.202;9.876;2023-01-01T05:40:44;1.07;;;0.70;;
13672;SDS011;6909;52.202;9.876;2023-01-01T05:43:11;3.60;;;0.93;;
13672;SDS011;6909;52.202;9.876;2023-01-01T05:45:39;1.37;;;0.67;;
13672;SDS011;6909;52.202;9.876;2023-01-01T05:48:05;2.60;;;0.53;;
13672;SDS011;6909;52.202;9.876;2023-01-01T05:50:32;3.27;;;0.60;;
13672;SDS011;6909;52.202;9.876;2023-01-01T05:52:59;2.17;;;0.70;;
13672;SDS011;6909;52.202;9.876;2023-01-01T05:55:25;4.80;;;0.60;;
13672;SDS011;6909;52.202;9.876;2023-01-01T05:57:52;4.07;;;0.73;;
13672;SDS011;6909;52.202;9.876;2023-01-01T06:00:18;0.90;;;0.60;;
13672;SDS011;6909;52.202;9.876;2023-01-01T06:02:47;0.83;;;0.50;;
13672;SDS011;6909;52.202;9.876;2023-01-01T06:05:15;1.90;;;0.50;;
13672;SDS011;6909;52.202;9.876;2023-01-01T06:07:41;4.83;;;0.60;;
13672;SDS011;6909;52.202;9.876;2023-01-01T06:10:08;1.37;;;0.70;;
13672;SDS011;6909;52.202;9.876;2023-01-01T06:12:35;0.77;;;0.70;;
13672;SDS011;6909;52.202;9.876;2023-01-01T06:15:01;1.03;;;0.57;;
13672;SDS011;6909;52.202;9.876;2023-01-01T06:17:28;1.70;;;0.70;;
13672;SDS011;6909;52.202;9.876;2023-01-01T06:19:56;0.77;;;0.67;;
13672;SDS011;6909;52.202;9.876;2023-01-01T06:22:23;1.53;;;0.90;;
13672;SDS011;6909;52.202;9.876;2023-01-01T06:24:49;1.60;;;0.70;;
13672;SDS011;6909;52.202;9.876;2023-01-01T06:27:16;1.77;;;0.63;;
13672;SDS011;6909;52.202;9.876;2023-01-01T06:29:42;1.17;;;0.83;;
13672;SDS011;6909;52.202;9.876;2023-01-01T06:32:09;1.00;;;0.50;;
13672;SDS011;6909;52.202;9.876;2023-01-01T06:34:36;0.80;;;0.70;;
13672;SDS011;6909;52.202;9.876;2023-01-01T06:37:04;2.90;;;0.60;;
13672;SDS011;6909;52.202;9.876;2023-01-01T06:39:30;2.03;;;0.90;;
13672;SDS011;6909;52.202;9.876;2023-01-01T06:41:57;1.93;;;0.53;;
13672;SDS011;6909;52.202;9.876;2023-01-01T06:44:23;0.97;;;0.93;;
13672;SDS011;6909;52.202;9.876;2023-01-01T06:46:50;1.10;;;0.77;;
13672;SDS011;6909;52.202;9.876;2023-01-01T06:49:16;2.17;;;0.70;;
13672;SDS011;6909;52.202;9.876;2023-01-01T06:51:43;1.43;;;0.70;;
13672;SDS011;6909;52.202;9.876;2023-01-01T06:54:11;0.50;;;0.50;;
13672;SDS011;6909;52.202;9.876;2023-01-01T06:56:38;0.77;;;0.60;;
13672;SDS011;6909;52.202;9.876;2023-01-01T06:59:05;1.80;;;0.47;;
13672;SDS011;6909;52.202;9.876;2023-01-01T07:01:33;0.80;;;0.50;;
13672;SDS011;6909;52.202;9.876;2023-01-01T07:04:01;0.70;;;0.47;;
13672;SDS011;6909;52.202;9.876;2023-01-01T07:06:29;3.00;;;0.67;;
13672;SDS011;6909;52.202;9.876;2023-01-01T07:08:57;1.17;;;0.70;;
13672;SDS011;6909;52.202;9.876;2023-01-01T07:11:25;2.50;;;0.70;;
13672;SDS011;6909;52.202;9.876;2023-01-01T07:13:52;2.03;;;0.43;;
13672;SDS011;6909;52.202;9.876;2023-01-01T07:16:19;1.50;;;0.47;;
13672;SDS011;6909;52.202;9.876;2023-01-01T07:18:46;2.00;;;0.80;;
13672;SDS011;6909;52.202;9.876;2023-01-01T07:21:23;0.83;;;0.60;;
13672;SDS011;6909;52.202;9.876;2023-01-01T07:23:52;1.93;;;0.53;;
13672;SDS011;6909;52.202;9.876;2023-01-01T07:26:20;0.30;;;0.30;;
13672;SDS011;6909;52.202;9.876;2023-01-01T07:28:48;4.43;;;1.27;;
13672;SDS011;6909;52.202;9.876;2023-01-01T07:31:15;1.17;;;0.60;;
13672;SDS011;6909;52.202;9.876;2023-01-01T07:33:41;3.00;;;0.60;;
13672;SDS011;6909;52.202;9.876;2023-01-01T07:36:08;2.70;;;0.70;;
13672;SDS011;6909;52.202;9.876;2023-01-01T07:38:35;0.87;;;0.60;;
13672;SDS011;6909;52.202;9.876;2023-01-01T07:41:02;3.37;;;0.80;;
13672;SDS011;6909;52.202;9.876;2023-01-01T07:43:28;1.77;;;0.70;;
13672;SDS011;6909;52.202;9.876;2023-01-01T07:45:57;0.70;;;0.50;;
13672;SDS011;6909;52.202;9.876;2023-01-01T07:48:24;0.60;;;0.40;;
13672;SDS011;6909;52.202;9.876;2023-01-01T07:50:51;1.63;;;0.60;;
13672;SDS011;6909;52.202;9.876;2023-01-01T07:53:17;0.80;;;0.47;;
13672;SDS011;6909;52.202;9.876;2023-01-01T07:55:44;1.20;;;0.80;;
13672;SDS011;6909;52.202;9.876;2023-01-01T07:58:11;1.40;;;0.40;;
13672;SDS011;6909;52.202;9.876;2023-01-01T08:00:37;0.70;;;0.53;;
13672;SDS011;6909;52.202;9.876;2023-01-01T08:03:05;1.07;;;0.70;;
13672;SDS011;6909;52.202;9.876;2023-01-01T08:05:32;3.33;;;0.80;;
13672;SDS011;6909;52.202;9.876;2023-01-01T08:07:59;2.37;;;0.80;;
13672;SDS011;6909;52.202;9.876;2023-01-01T08:10:26;0.97;;;0.87;;
13672;SDS011;6909;52.202;9.876;2023-01-01T08:12:57;2.47;;;0.60;;
13672;SDS011;6909;52.202;9.876;2023-01-01T08:15:24;1.30;;;0.67;;
13672;SDS011;6909;52.202;9.876;2023-01-01T08:17:54;0.73;;;0.63;;
13672;SDS011;6909;52.202;9.876;2023-01-01T08:20:22;0.73;;;0.47;;
13672;SDS011;6909;52.202;9.876;2023-01-01T08:22:49;1.13;;;0.40;;
13672;SDS011;6909;52.202;9.876;2023-01-01T08:25:16;1.93;;;0.50;;
13672;SDS011;6909;52.202;9.876;2023-01-01T08:27:43;2.57;;;0.60;;
13672;SDS011;6909;52.202;9.876;2023-01-01T08:30:10;2.23;;;0.60;;
13672;SDS011;6909;52.202;9.876;2023-01-01T08:32:39;1.97;;;0.40;;
13672;SDS011;6909;52.202;9.876;2023-01-01T08:35:06;0.90;;;0.57;;
13672;SDS011;6909;52.202;9.876;2023-01-01T08:37:35;1.23;;;0.67;;
13672;SDS011;6909;52.202;9.876;2023-01-01T08:40:01;2.20;;;0.60;;
13672;SDS011;6909;52.202;9.876;2023-01-01T08:42:29;1.23;;;0.63;;
13672;SDS011;6909;52.202;9.876;2023-01-01T08:45:00;0.63;;;0.40;;
13672;SDS011;6909;52.202;9.876;2023-01-01T08:47:27;1.47;;;0.80;;
13672;SDS011;6909;52.202;9.876;2023-01-01T08:49:53;3.07;;;0.50;;
13672;SDS011;6909;52.202;9.876;2023-01-01T08:52:20;0.50;;;0.40;;
13672;SDS011;6909;52.202;9.876;2023-01-01T08:54:49;0.30;;;0.30;;
13672;SDS011;6909;52.202;9.876;2023-01-01T08:57:16;1.17;;;0.50;;
13672;SDS011;6909;52.202;9.876;2023-01-01T08:59:42;1.60;;;0.43;;
13672;SDS011;6909;52.202;9.876;2023-01-01T09:02:09;0.83;;;0.57;;
13672;SDS011;6909;52.202;9.876;2023-01-01T09:04:37;1.20;;;0.70;;
13672;SDS011;6909;52.202;9.876;2023-01-01T09:07:03;3.47;;;0.53;;
13672;SDS011;6909;52.202;9.876;2023-01-01T09:09:30;1.00;;;0.40;;
13672;SDS011;6909;52.202;9.876;2023-01-01T09:11:58;1.13;;;0.77;;
13672;SDS011;6909;52.202;9.876;2023-01-01T09:14:30;0.60;;;0.53;;
13672;SDS011;6909;52.202;9.876;2023-01-01T09:16:57;0.70;;;0.67;;
13672;SDS011;6909;52.202;9.876;2023-01-01T09:19:24;0.60;;;0.40;;
13672;SDS011;6909;52.202;9.876;2023-01-01T09:21:51;1.27;;;0.80;;
13672;SDS011;6909;52.202;9.876;2023-01-01T09:24:18;1.60;;;0.67;;
13672;SDS011;6909;52.202;9.876;2023-01-01T09:26:45;3.03;;;0.80;;
13672;SDS011;6909;52.202;9.876;2023-01-01T09:29:13;0.80;;;0.73;;
13672;SDS011;6909;52.202;9.876;2023-01-01T09:31:42;1.87;;;0.87;;
13672;SDS011;6909;52.202;9.876;2023-01-01T09:34:09;1.93;;;0.73;;
13672;SDS011;6909;52.202;9.876;2023-01-01T09:36:35;1.73;;;0.70;;
13672;SDS011;6909;52.202;9.876;2023-01-01T09:39:02;4.67;;;0.90;;
13672;SDS011;6909;52.202;9.876;2023-01-01T09:41:32;4.00;;;1.10;;
13672;SDS011;6909;52.202;9.876;2023-01-01T09:44:16;0.50;;;0.43;;
13672;SDS011;6909;52.202;9.876;2023-01-01T09:46:55;1.30;;;0.33;;
13672;SDS011;6909;52.202;9.876;2023-01-01T09:49:28;0.30;;;0.30;;
13672;SDS011;6909;52.202;9.876;2023-01-01T09:51:59;0.60;;;0.60;;
13672;SDS011;6909;52.202;9.876;2023-01-01T09:54:30;0.70;;;0.53;;
13672;SDS011;6909;52.202;9.876;2023-01-01T09:57:00;0.73;;;0.50;;
13672;SDS011;6909;52.202;9.876;2023-01-01T09:59:29;0.67;;;0.50;;
13672;SDS011;6909;52.202;9.876;2023-01-01T10:01:56;2.67;;;0.70;;
13672;SDS011;6909;52.202;9.876;2023-01-01T10:04:36;3.43;;;0.70;;
13672;SDS011;6909;52.202;9.876;2023-01-01T10:07:13;1.40;;;0.60;;
13672;SDS011;6909;52.202;9.876;2023-01-01T10:09:49;1.20;;;0.60;;
13672;SDS011;6909;52.202;9.876;2023-01-01T10:12:26;1.53;;;0.60;;
13672;SDS011;6909;52.202;9.876;2023-01-01T10:15:03;0.53;;;0.53;;
13672;SDS011;6909;52.202;9.876;2023-01-01T10:17:36;1.10;;;0.60;;
13672;SDS011;6909;52.202;9.876;2023-01-01T10:20:10;0.57;;;0.37;;
13672;SDS011;6909;52.202;9.876;2023-01-01T10:22:45;0.30;;;0.30;;
13672;SDS011;6909;52.202;9.876;2023-01-01T10:25:17;0.30;;;0.30;;
13672;SDS011;6909;52.202;9.876;2023-01-01T10:27:46;0.53;;;0.53;;
13672;SDS011;6909;52.202;9.876;2023-01-01T10:30:19;0.97;;;0.60;;
13672;SDS011;6909;52.202;9.876;2023-01-01T10:32:47;0.87;;;0.50;;
13672;SDS011;6909;52.202;9.876;2023-01-01T10:35:15;2.47;;;0.53;;
13672;SDS011;6909;52.202;9.876;2023-01-01T10:37:43;1.57;;;0.40;;
13672;SDS011;6909;52.202;9.876;2023-01-01T10:40:14;0.47;;;0.47;;
13672;SDS011;6909;52.202;9.876;2023-01-01T10:42:44;1.70;;;0.60;;
13672;SDS011;6909;52.202;9.876;2023-01-01T10:45:13;0.97;;;0.53;;
13672;SDS011;6909;52.202;9.876;2023-01-01T10:50:41;0.67;;;0.60;;
13672;SDS011;6909;52.202;9.876;2023-01-01T10:53:17;0.70;;;0.50;;
13672;SDS011;6909;52.202;9.876;2023-01-01T10:55:50;0.57;;;0.43;;
13672;SDS011;6909;52.202;9.876;2023-01-01T10:58:24;2.30;;;0.50;;
13672;SDS011;6909;52.202;9.876;2023-01-01T11:00:59;0.70;;;0.60;;
13672;SDS011;6909;52.202;9.876;2023-01-01T11:03:27;2.00;;;0.77;;
13672;SDS011;6909;52.202;9.876;2023-01-01T11:05:59;0.87;;;0.50;;
13672;SDS011;6909;52.202;9.876;2023-01-01T11:08:27;1.33;;;0.40;;
13672;SDS011;6909;52.202;9.876;2023-01-01T11:10:55;0.83;;;0.50;;
13672;SDS011;6909;52.202;9.876;2023-01-01T11:13:24;0.50;;;0.40;;
13672;SDS011;6909;52.202;9.876;2023-01-01T11:15:52;0.47;;;0.47;;
13672;SDS011;6909;52.202;9.876;2023-01-01T11:18:19;2.20;;;0.80;;
13672;SDS011;6909;52.202;9.876;2023-01-01T11:20:51;2.20;;;0.60;;
13672;SDS011;6909;52.202;9.876;2023-01-01T11:23:25;4.83;;;0.80;;
13672;SDS011;6909;52.202;9.876;2023-01-01T11:25:58;0.93;;;0.53;;
13672;SDS011;6909;52.202;9.876;2023-01-01T11:28:27;0.90;;;0.57;;
13672;SDS011;6909;52.202;9.876;2023-01-01T11:30:59;1.33;;;0.60;;
13672;SDS011;6909;52.202;9.876;2023-01-01T11:33:29;1.30;;;0.70;;
13672;SDS011;6909;52.202;9.876;2023-01-01T11:36:00;1.07;;;0.50;;
13672;SDS011;6909;52.202;9.876;2023-01-01T11:38:27;0.50;;;0.50;;
13672;SDS011;6909;52.202;9.876;2023-01-01T11:40:54;1.37;;;1.00;;
13672;SDS011;6909;52.202;9.876;2023-01-01T11:43:27;3.37;;;0.93;;
13672;SDS011;6909;52.202;9.876;2023-01-01T11:45:56;1.20;;;0.60;;
13672;SDS011;6909;52.202;9.876;2023-01-01T11:48:25;3.30;;;0.50;;
13672;SDS011;6909;52.202;9.876;2023-01-01T11:50:54;3.53;;;0.53;;
13672;SDS011;6909;52.202;9.876;2023-01-01T11:53:27;0.90;;;0.87;;
13672;SDS011;6909;52.202;9.876;2023-01-01T11:55:58;0.73;;;0.60;;
13672;SDS011;6909;52.202;9.876;2023-01-01T11:58:29;1.83;;;0.97;;
13672;SDS011;6909;52.202;9.876;2023-01-01T12:01:04;2.00;;;1.00;;
13672;SDS011;6909;52.202;9.876;2023-01-01T12:03:37;4.93;;;0.60;;
13672;SDS011;6909;52.202;9.876;2023-01-01T12:06:09;0.60;;;0.50;;
13672;SDS011;6909;52.202;9.876;2023-01-01T12:08:43;2.17;;;0.60;;
13672;SDS011;6909;52.202;9.876;2023-01-01T12:11:16;2.83;;;0.60;;
13672;SDS011;6909;52.202;9.876;2023-01-01T12:13:49;0.80;;;0.40;;
13672;SDS011;6909;52.202;9.876;2023-01-01T12:16:21;0.23;;;0.20;;
13672;SDS011;6909;52.202;9.876;2023-01-01T12:18:55;2.33;;;0.67;;
13672;SDS011;6909;52.202;9.876;2023-01-01T12:21:26;0.40;;;0.40;;
13672;SDS011;6909;52.202;9.876;2023-01-01T12:23:57;0.50;;;0.40;;
13672;SDS011;6909;52.202;9.876;2023-01-01T12:26:24;0.40;;;0.30;;
13672;SDS011;6909;52.202;9.876;2023-01-01T12:29:05;0.87;;;0.57;;
13672;SDS011;6909;52.202;9.876;2023-01-01T12:31:44;0.83;;;0.83;;
13672;SDS011;6909;52.202;9.876;2023-01-01T12:34:23;0.30;;;0.30;;
13672;SDS011;6909;52.202;9.876;2023-01-01T12:36:57;0.70;;;0.30;;
13672;SDS011;6909;52.202;9.876;2023-01-01T12:39:41;0.27;;;0.23;;
13672;SDS011;6909;52.202;9.876;2023-01-01T12:42:36;1.40;;;0.50;;
13672;SDS011;6909;52.202;9.876;2023-01-01T12:45:16;0.33;;;0.23;;
13672;SDS011;6909;52.202;9.876;2023-01-01T12:47:56;1.00;;;0.20;;
13672;SDS011;6909;52.202;9.876;2023-01-01T12:50:29;2.17;;;1.17;;
13672;SDS011;6909;52.202;9.876;2023-01-01T12:53:06;1.00;;;0.30;;
13672;SDS011;6909;52.202;9.876;2023-01-01T12:55:52;5.27;;;0.30;;
13672;SDS011;6909;52.202;9.876;2023-01-01T12:58:29;1.03;;;0.43;;
13672;SDS011;6909;52.202;9.876;2023-01-01T13:01:03;0.37;;;0.37;;
13672;SDS011;6909;52.202;9.876;2023-01-01T13:03:35;1.40;;;0.30;;
13672;SDS011;6909;52.202;9.876;2023-01-01T13:06:08;0.30;;;0.30;;
13672;SDS011;6909;52.202;9.876;2023-01-01T13:08:37;0.20;;;0.20;;
13672;SDS011;6909;52.202;9.876;2023-01-01T13:11:08;0.40;;;0.40;;
13672;SDS011;6909;52.202;9.876;2023-01-01T13:13:37;0.30;;;0.30;;
13672;SDS011;6909;52.202;9.876;2023-01-01T13:16:04;1.13;;;0.47;;
13672;SDS011;6909;52.202;9.876;2023-01-01T13:18:33;0.47;;;0.40;;
13672;SDS011;6909;52.202;9.876;2023-01-01T13:21:02;1.17;;;0.30;;
13672;SDS011;6909;52.202;9.876;2023-01-01T13:23:41;1.03;;;0.50;;
13672;SDS011;6909;52.202;9.876;2023-01-01T13:26:35;0.43;;;0.40;;
13672;SDS011;6909;52.202;9.876;2023-01-01T13:32:08;0.30;;;0.20;;
13672;SDS011;6909;52.202;9.876;2023-01-01T13:34:38;1.80;;;0.67;;
13672;SDS011;6909;52.202;9.876;2023-01-01T13:43:20;0.47;;;0.40;;
13672;SDS011;6909;52.202;9.876;2023-01-01T13:45:55;1.83;;;0.77;;
13672;SDS011;6909;52.202;9.876;2023-01-01T13:48:31;1.47;;;0.70;;
13672;SDS011;6909;52.202;9.876;2023-01-01T13:51:13;0.47;;;0.30;;
13672;SDS011;6909;52.202;9.876;2023-01-01T13:54:08;0.67;;;0.30;;
13672;SDS011;6909;52.202;9.876;2023-01-01T13:56:53;0.30;;;0.30;;
13672;SDS011;6909;52.202;9.876;2023-01-01T13:59:32;0.83;;;0.40;;
13672;SDS011;6909;52.202;9.876;2023-01-01T14:02:15;2.33;;;0.47;;
13672;SDS011;6909;52.202;9.876;2023-01-01T14:04:48;1.00;;;0.50;;
13672;SDS011;6909;52.202;9.876;2023-01-01T14:07:19;1.03;;;0.60;;
13672;SDS011;6909;52.202;9.876;2023-01-01T14:10:06;0.70;;;0.40;;
13672;SDS011;6909;52.202;9.876;2023-01-01T14:12:54;0.93;;;0.47;;
13672;SDS011;6909;52.202;9.876;2023-01-01T14:15:25;1.00;;;0.50;;
13672;SDS011;6909;52.202;9.876;2023-01-01T14:17:53;1.70;;;0.50;;
13672;SDS011;6909;52.202;9.876;2023-01-01T14:20:22;0.50;;;0.50;;
13672;SDS011;6909;52.202;9.876;2023-01-01T14:22:56;0.40;;;0.37;;
13672;SDS011;6909;52.202;9.876;2023-01-01T14:25:25;0.60;;;0.57;;
13672;SDS011;6909;52.202;9.876;2023-01-01T14:27:55;1.60;;;0.90;;
13672;SDS011;6909;52.202;9.876;2023-01-01T14:30:25;3.13;;;0.90;;
13672;SDS011;6909;52.202;9.876;2023-01-01T14:32:54;1.70;;;1.10;;
13672;SDS011;6909;52.202;9.876;2023-01-01T14:35:22;1.07;;;0.53;;
13672;SDS011;6909;52.202;9.876;2023-01-01T14:37:49;0.70;;;0.50;;
13672;SDS011;6909;52.202;9.876;2023-01-01T14:40:17;1.33;;;0.50;;
13672;SDS011;6909;52.202;9.876;2023-01-01T14:42:53;2.37;;;1.20;;
13672;SDS011;6909;52.202;9.876;2023-01-01T14:45:24;1.00;;;0.60;;
13672;SDS011;6909;52.202;9.876;2023-01-01T14:47:51;2.73;;;0.97;;
13672;SDS011;6909;52.202;9.876;2023-01-01T14:50:24;1.37;;;0.57;;
13672;SDS011;6909;52.202;9.876;2023-01-01T14:52:54;2.93;;;0.80;;
13672;SDS011;6909;52.202;9.876;2023-01-01T14:55:24;1.20;;;1.10;;
13672;SDS011;6909;52.202;9.876;2023-01-01T14:57:54;0.60;;;0.53;;
13672;SDS011;6909;52.202;9.876;2023-01-01T15:00:25;0.67;;;0.43;;
13672;SDS011;6909;52.202;9.876;2023-01-01T15:02:53;0.60;;;0.37;;
13672;SDS011;6909;52.202;9.876;2023-01-01T15:05:29;1.87;;;0.53;;
13672;SDS011;6909;52.202;9.876;2023-01-01T15:07:57;2.43;;;0.47;;
13672;SDS011;6909;52.202;9.876;2023-01-01T15:10:26;1.90;;;0.50;;
13672;SDS011;6909;52.202;9.876;2023-01-01T15:12:58;2.53;;;0.67;;
13672;SDS011;6909;52.202;9.876;2023-01-01T15:18:34;1.43;;;0.40;;
13672;SDS011;6909;52.202;9.876;2023-01-01T15:21:06;1.03;;;0.73;;
13672;SDS011;6909;52.202;9.876;2023-01-01T15:23:39;1.40;;;0.50;;
13672;SDS011;6909;52.202;9.876;2023-01-01T15:26:14;1.20;;;0.43;;
13672;SDS011;6909;52.202;9.876;2023-01-01T15:28:51;2.10;;;0.57;;
13672;SDS011;6909;52.202;9.876;2023-01-01T15:31:19;0.47;;;0.33;;
13672;SDS011;6909;52.202;9.876;2023-01-01T15:33:46;1.53;;;0.70;;
13672;SDS011;6909;52.202;9.876;2023-01-01T15:36:13;0.40;;;0.30;;